Independence, Texas
Current Conditions -  °F | °C
As of 11:35 PM on Friday 31 Oct 2014 (Local Time) from K11R Reporting Station
Clear Clear  
Wind Chill: 55°   Ceiling: Unl
Heat Index: 55°   Visibility: 10mi
Dew Point: 44°   Wind: 6mph
Humidity: 65%   Direction: 360°N
Pressure: 30.32"   Gusts: NA
Location:  30.2352°N, 96.4076°W
Report Text: K11R 010435Z AUTO 36005KT 10SM CLR 13/07 A3032 RMK AO2 T01290065
Loading
Personal Weather Stations






























Interactive Weather Map
Tropical Storm Tracking
New forecast layout! Learn more

10-Day Weather Forecast

Advertisements
Track Severe Weather on mobile